KALS/ALS METAR and TAF weather

Enter ICAO airport designator
Station Type Date Time Source
KALS METAR 2021/08/01 17:28 UTC NOAA

KALS 011728Z AUTO 10005KT 10SM FEW025 OVC080 17/12 A3054 RMK AO2 T01720117 $


Station Type Date Time Source
KALS Decoded METAR 2021/08/01 17:28 UTC NOAA

SAN LUIS VALLEY REGIONAL, CO, United States (KALS) 37-26N 105-52W 2299M
Aug 01, 2021 - 01:28 PM EDT / 2021.08.01 1728 UTC
Wind: from the E (100 degrees) at 6 MPH (5 KT):0
Visibility: 10 mile(s):0
Sky conditions: overcast
Temperature: 63.0 F (17.2 C)
Dew Point: 53.1 F (11.7 C)
Relative Humidity: 70%
Pressure (altimeter): 30.54 in. Hg (1034 hPa)
ob: KALS 011728Z AUTO 10005KT 10SM FEW025 OVC080 17/12 A3054 RMK AO2 T01720117
cycle: 17

Station Type Date Time Source
KALS TAF 2021/08/01 18:33 UTC NOAA

TAF KALS 011730Z 0118/0218 12008KT P6SM SCT025 BKN080
FM012000 09010KT P6SM VCSH SCT030 SCT080 BKN120
FM020200 02006KT P6SM SCT080 BKN140
FM021700 12007KT P6SM SCT080 BKN200

Example: see airport list